sensor_id;sensor_type;location;lat;lon;timestamp;P1;durP1;ratioP1;P2;durP2;ratioP2
64293;SDS011;50636;45.596;5.258;2023-04-27T00:00:09;15.88;;;5.05;;
64293;SDS011;50636;45.596;5.258;2023-04-27T00:02:35;15.10;;;3.95;;
64293;SDS011;50636;45.596;5.258;2023-04-27T00:05:02;20.42;;;4.47;;
64293;SDS011;50636;45.596;5.258;2023-04-27T00:07:29;11.45;;;3.92;;
64293;SDS011;50636;45.596;5.258;2023-04-27T00:09:55;19.02;;;4.50;;
64293;SDS011;50636;45.596;5.258;2023-04-27T00:12:22;7.13;;;3.35;;
64293;SDS011;50636;45.596;5.258;2023-04-27T00:14:48;10.50;;;3.97;;
64293;SDS011;50636;45.596;5.258;2023-04-27T00:17:13;6.13;;;3.78;;
64293;SDS011;50636;45.596;5.258;2023-04-27T00:19:39;11.70;;;4.10;;
64293;SDS011;50636;45.596;5.258;2023-04-27T00:22:06;21.27;;;5.25;;
64293;SDS011;50636;45.596;5.258;2023-04-27T00:24:33;16.73;;;5.20;;
64293;SDS011;50636;45.596;5.258;2023-04-27T00:26:59;10.48;;;4.60;;
64293;SDS011;50636;45.596;5.258;2023-04-27T00:29:25;11.90;;;4.13;;
64293;SDS011;50636;45.596;5.258;2023-04-27T00:31:51;16.92;;;6.10;;
64293;SDS011;50636;45.596;5.258;2023-04-27T00:34:17;15.98;;;5.43;;
64293;SDS011;50636;45.596;5.258;2023-04-27T00:36:42;8.10;;;3.80;;
64293;SDS011;50636;45.596;5.258;2023-04-27T00:39:08;13.35;;;4.63;;
64293;SDS011;50636;45.596;5.258;2023-04-27T00:41:37;19.10;;;4.07;;
64293;SDS011;50636;45.596;5.258;2023-04-27T00:44:03;13.25;;;3.97;;
64293;SDS011;50636;45.596;5.258;2023-04-27T00:46:30;16.55;;;5.13;;
64293;SDS011;50636;45.596;5.258;2023-04-27T00:48:57;7.93;;;4.18;;
64293;SDS011;50636;45.596;5.258;2023-04-27T00:51:23;13.15;;;4.13;;
64293;SDS011;50636;45.596;5.258;2023-04-27T00:53:55;13.07;;;4.40;;
64293;SDS011;50636;45.596;5.258;2023-04-27T00:56:23;12.02;;;4.47;;
64293;SDS011;50636;45.596;5.258;2023-04-27T00:58:48;10.38;;;3.97;;
64293;SDS011;50636;45.596;5.258;2023-04-27T01:01:14;25.88;;;5.53;;
64293;SDS011;50636;45.596;5.258;2023-04-27T01:03:40;13.02;;;3.63;;
64293;SDS011;50636;45.596;5.258;2023-04-27T01:06:06;7.20;;;3.75;;
64293;SDS011;50636;45.596;5.258;2023-04-27T01:08:32;13.95;;;3.63;;
64293;SDS011;50636;45.596;5.258;2023-04-27T01:10:58;9.55;;;4.00;;
64293;SDS011;50636;45.596;5.258;2023-04-27T01:13:24;7.13;;;3.42;;
64293;SDS011;50636;45.596;5.258;2023-04-27T01:15:49;7.18;;;3.40;;
64293;SDS011;50636;45.596;5.258;2023-04-27T01:18:15;10.27;;;3.60;;
64293;SDS011;50636;45.596;5.258;2023-04-27T01:20:41;20.70;;;3.80;;
64293;SDS011;50636;45.596;5.258;2023-04-27T01:23:07;10.45;;;3.20;;
64293;SDS011;50636;45.596;5.258;2023-04-27T01:25:33;8.80;;;3.40;;
64293;SDS011;50636;45.596;5.258;2023-04-27T01:27:59;7.03;;;4.18;;
64293;SDS011;50636;45.596;5.258;2023-04-27T01:30:24;8.05;;;3.38;;
64293;SDS011;50636;45.596;5.258;2023-04-27T01:32:52;11.05;;;4.03;;
64293;SDS011;50636;45.596;5.258;2023-04-27T01:35:18;13.25;;;4.35;;
64293;SDS011;50636;45.596;5.258;2023-04-27T01:37:44;9.40;;;3.63;;
64293;SDS011;50636;45.596;5.258;2023-04-27T01:40:10;5.32;;;2.95;;
64293;SDS011;50636;45.596;5.258;2023-04-27T01:42:37;13.45;;;4.55;;
64293;SDS011;50636;45.596;5.258;2023-04-27T01:45:03;10.27;;;4.00;;
64293;SDS011;50636;45.596;5.258;2023-04-27T01:47:29;8.27;;;3.70;;
64293;SDS011;50636;45.596;5.258;2023-04-27T01:49:55;10.30;;;3.78;;
64293;SDS011;50636;45.596;5.258;2023-04-27T01:52:20;12.95;;;4.07;;
64293;SDS011;50636;45.596;5.258;2023-04-27T01:54:46;7.90;;;3.58;;
64293;SDS011;50636;45.596;5.258;2023-04-27T01:57:12;11.15;;;4.10;;
64293;SDS011;50636;45.596;5.258;2023-04-27T01:59:38;12.98;;;3.90;;
64293;SDS011;50636;45.596;5.258;2023-04-27T02:02:04;12.90;;;3.85;;
64293;SDS011;50636;45.596;5.258;2023-04-27T02:04:30;6.93;;;3.88;;
64293;SDS011;50636;45.596;5.258;2023-04-27T02:06:55;6.22;;;3.38;;
64293;SDS011;50636;45.596;5.258;2023-04-27T02:09:21;8.77;;;3.58;;
64293;SDS011;50636;45.596;5.258;2023-04-27T02:11:47;12.10;;;3.97;;
64293;SDS011;50636;45.596;5.258;2023-04-27T02:14:13;9.38;;;3.75;;
64293;SDS011;50636;45.596;5.258;2023-04-27T02:16:38;7.50;;;3.63;;
64293;SDS011;50636;45.596;5.258;2023-04-27T02:19:04;8.77;;;4.57;;
64293;SDS011;50636;45.596;5.258;2023-04-27T02:21:30;17.60;;;4.05;;
64293;SDS011;50636;45.596;5.258;2023-04-27T02:23:56;16.10;;;3.40;;
64293;SDS011;50636;45.596;5.258;2023-04-27T02:26:22;10.93;;;4.18;;
64293;SDS011;50636;45.596;5.258;2023-04-27T02:28:53;9.50;;;4.03;;
64293;SDS011;50636;45.596;5.258;2023-04-27T02:31:21;8.15;;;3.35;;
64293;SDS011;50636;45.596;5.258;2023-04-27T02:33:47;6.72;;;3.88;;
64293;SDS011;50636;45.596;5.258;2023-04-27T02:36:13;7.05;;;3.40;;
64293;SDS011;50636;45.596;5.258;2023-04-27T02:38:38;9.00;;;3.42;;
64293;SDS011;50636;45.596;5.258;2023-04-27T02:41:04;11.07;;;3.58;;
64293;SDS011;50636;45.596;5.258;2023-04-27T02:43:30;9.25;;;3.58;;
64293;SDS011;50636;45.596;5.258;2023-04-27T02:45:56;13.02;;;4.45;;
64293;SDS011;50636;45.596;5.258;2023-04-27T02:48:26;8.65;;;3.50;;
64293;SDS011;50636;45.596;5.258;2023-04-27T02:50:51;8.68;;;3.90;;
64293;SDS011;50636;45.596;5.258;2023-04-27T02:53:17;12.05;;;3.42;;
64293;SDS011;50636;45.596;5.258;2023-04-27T02:55:46;13.82;;;4.20;;
64293;SDS011;50636;45.596;5.258;2023-04-27T02:58:12;7.70;;;3.33;;
64293;SDS011;50636;45.596;5.258;2023-04-27T03:00:38;11.98;;;3.85;;
64293;SDS011;50636;45.596;5.258;2023-04-27T03:03:05;13.50;;;3.63;;
64293;SDS011;50636;45.596;5.258;2023-04-27T03:05:32;6.75;;;3.58;;
64293;SDS011;50636;45.596;5.258;2023-04-27T03:07:58;7.50;;;3.75;;
64293;SDS011;50636;45.596;5.258;2023-04-27T03:10:24;9.38;;;4.35;;
64293;SDS011;50636;45.596;5.258;2023-04-27T03:12:50;9.10;;;4.00;;
64293;SDS011;50636;45.596;5.258;2023-04-27T03:15:15;8.30;;;3.30;;
64293;SDS011;50636;45.596;5.258;2023-04-27T03:17:41;11.52;;;4.03;;
64293;SDS011;50636;45.596;5.258;2023-04-27T03:20:07;7.30;;;3.50;;
64293;SDS011;50636;45.596;5.258;2023-04-27T03:22:37;10.48;;;4.30;;
64293;SDS011;50636;45.596;5.258;2023-04-27T03:25:03;9.00;;;3.60;;
64293;SDS011;50636;45.596;5.258;2023-04-27T03:27:29;7.03;;;3.40;;
64293;SDS011;50636;45.596;5.258;2023-04-27T03:29:55;10.32;;;4.40;;
64293;SDS011;50636;45.596;5.258;2023-04-27T03:32:21;8.88;;;4.68;;
64293;SDS011;50636;45.596;5.258;2023-04-27T03:34:47;10.77;;;5.05;;
64293;SDS011;50636;45.596;5.258;2023-04-27T03:37:13;9.88;;;5.28;;
64293;SDS011;50636;45.596;5.258;2023-04-27T03:39:38;11.10;;;5.97;;
64293;SDS011;50636;45.596;5.258;2023-04-27T03:42:04;12.73;;;6.85;;
64293;SDS011;50636;45.596;5.258;2023-04-27T03:44:30;16.40;;;6.00;;
64293;SDS011;50636;45.596;5.258;2023-04-27T03:46:57;9.00;;;4.85;;
64293;SDS011;50636;45.596;5.258;2023-04-27T03:49:23;13.43;;;4.38;;
64293;SDS011;50636;45.596;5.258;2023-04-27T03:51:49;7.82;;;3.72;;
64293;SDS011;50636;45.596;5.258;2023-04-27T03:54:15;9.48;;;3.85;;
64293;SDS011;50636;45.596;5.258;2023-04-27T03:56:41;8.10;;;4.20;;
64293;SDS011;50636;45.596;5.258;2023-04-27T03:59:08;7.90;;;4.28;;
64293;SDS011;50636;45.596;5.258;2023-04-27T04:01:34;9.48;;;3.80;;
64293;SDS011;50636;45.596;5.258;2023-04-27T04:04:01;11.15;;;4.28;;
64293;SDS011;50636;45.596;5.258;2023-04-27T04:06:27;10.70;;;3.67;;
64293;SDS011;50636;45.596;5.258;2023-04-27T04:08:53;13.43;;;3.80;;
64293;SDS011;50636;45.596;5.258;2023-04-27T04:11:19;15.55;;;3.78;;
64293;SDS011;50636;45.596;5.258;2023-04-27T04:13:45;13.13;;;5.35;;
64293;SDS011;50636;45.596;5.258;2023-04-27T04:16:11;7.28;;;4.25;;
64293;SDS011;50636;45.596;5.258;2023-04-27T04:18:37;12.10;;;4.90;;
64293;SDS011;50636;45.596;5.258;2023-04-27T04:21:03;17.27;;;6.38;;
64293;SDS011;50636;45.596;5.258;2023-04-27T04:23:30;5.88;;;3.88;;
64293;SDS011;50636;45.596;5.258;2023-04-27T04:25:57;8.02;;;4.30;;
64293;SDS011;50636;45.596;5.258;2023-04-27T04:28:23;11.00;;;4.50;;
64293;SDS011;50636;45.596;5.258;2023-04-27T04:30:49;10.25;;;5.35;;
64293;SDS011;50636;45.596;5.258;2023-04-27T04:33:15;6.30;;;3.88;;
64293;SDS011;50636;45.596;5.258;2023-04-27T04:35:42;8.15;;;4.20;;
64293;SDS011;50636;45.596;5.258;2023-04-27T04:38:08;12.05;;;4.30;;
64293;SDS011;50636;45.596;5.258;2023-04-27T04:40:37;12.50;;;4.40;;
64293;SDS011;50636;45.596;5.258;2023-04-27T04:43:03;11.07;;;4.43;;
64293;SDS011;50636;45.596;5.258;2023-04-27T04:45:29;19.90;;;5.03;;
64293;SDS011;50636;45.596;5.258;2023-04-27T04:47:55;6.82;;;4.35;;
64293;SDS011;50636;45.596;5.258;2023-04-27T04:50:21;5.57;;;4.10;;
64293;SDS011;50636;45.596;5.258;2023-04-27T04:52:47;8.48;;;4.80;;
64293;SDS011;50636;45.596;5.258;2023-04-27T04:55:14;12.38;;;5.70;;
64293;SDS011;50636;45.596;5.258;2023-04-27T04:57:40;11.60;;;4.70;;
64293;SDS011;50636;45.596;5.258;2023-04-27T05:00:06;10.68;;;3.97;;
64293;SDS011;50636;45.596;5.258;2023-04-27T05:02:37;15.07;;;5.22;;
64293;SDS011;50636;45.596;5.258;2023-04-27T05:05:03;9.25;;;4.70;;
64293;SDS011;50636;45.596;5.258;2023-04-27T05:07:29;13.20;;;4.50;;
64293;SDS011;50636;45.596;5.258;2023-04-27T05:09:55;18.30;;;4.65;;
64293;SDS011;50636;45.596;5.258;2023-04-27T05:12:21;11.20;;;5.60;;
64293;SDS011;50636;45.596;5.258;2023-04-27T05:14:47;32.35;;;6.40;;
64293;SDS011;50636;45.596;5.258;2023-04-27T05:17:13;23.30;;;4.63;;
64293;SDS011;50636;45.596;5.258;2023-04-27T05:19:39;11.63;;;4.05;;
64293;SDS011;50636;45.596;5.258;2023-04-27T05:22:04;24.38;;;4.82;;
64293;SDS011;50636;45.596;5.258;2023-04-27T05:24:31;13.95;;;4.03;;
64293;SDS011;50636;45.596;5.258;2023-04-27T05:26:58;10.63;;;4.38;;
64293;SDS011;50636;45.596;5.258;2023-04-27T05:29:24;10.27;;;4.70;;
64293;SDS011;50636;45.596;5.258;2023-04-27T05:31:50;13.77;;;4.45;;
64293;SDS011;50636;45.596;5.258;2023-04-27T05:34:15;15.77;;;5.00;;
64293;SDS011;50636;45.596;5.258;2023-04-27T05:36:41;9.13;;;5.82;;
64293;SDS011;50636;45.596;5.258;2023-04-27T05:39:07;12.25;;;5.78;;
64293;SDS011;50636;45.596;5.258;2023-04-27T05:41:33;20.00;;;5.10;;
64293;SDS011;50636;45.596;5.258;2023-04-27T05:43:59;11.40;;;4.18;;
64293;SDS011;50636;45.596;5.258;2023-04-27T05:46:25;14.48;;;4.80;;
64293;SDS011;50636;45.596;5.258;2023-04-27T05:48:50;14.20;;;4.10;;
64293;SDS011;50636;45.596;5.258;2023-04-27T05:51:16;17.98;;;4.45;;
64293;SDS011;50636;45.596;5.258;2023-04-27T05:53:42;22.45;;;5.07;;
64293;SDS011;50636;45.596;5.258;2023-04-27T05:56:08;13.60;;;5.03;;
64293;SDS011;50636;45.596;5.258;2023-04-27T05:58:35;12.20;;;3.67;;
64293;SDS011;50636;45.596;5.258;2023-04-27T06:01:02;12.80;;;3.83;;
64293;SDS011;50636;45.596;5.258;2023-04-27T06:03:28;11.55;;;4.10;;
64293;SDS011;50636;45.596;5.258;2023-04-27T06:05:55;11.70;;;4.47;;
64293;SDS011;50636;45.596;5.258;2023-04-27T06:08:22;14.65;;;4.28;;
64293;SDS011;50636;45.596;5.258;2023-04-27T06:10:51;15.05;;;4.30;;
64293;SDS011;50636;45.596;5.258;2023-04-27T06:13:18;9.23;;;3.47;;
64293;SDS011;50636;45.596;5.258;2023-04-27T06:15:44;7.35;;;3.97;;
64293;SDS011;50636;45.596;5.258;2023-04-27T06:18:11;13.82;;;4.53;;
64293;SDS011;50636;45.596;5.258;2023-04-27T06:20:37;16.70;;;4.22;;
64293;SDS011;50636;45.596;5.258;2023-04-27T06:23:03;13.52;;;4.22;;
64293;SDS011;50636;45.596;5.258;2023-04-27T06:25:29;12.30;;;3.42;;
64293;SDS011;50636;45.596;5.258;2023-04-27T06:27:55;10.82;;;3.55;;
64293;SDS011;50636;45.596;5.258;2023-04-27T06:30:22;8.65;;;3.13;;
64293;SDS011;50636;45.596;5.258;2023-04-27T06:32:49;10.25;;;3.70;;
64293;SDS011;50636;45.596;5.258;2023-04-27T06:35:16;8.52;;;4.38;;
64293;SDS011;50636;45.596;5.258;2023-04-27T06:37:42;9.20;;;4.45;;
64293;SDS011;50636;45.596;5.258;2023-04-27T06:40:09;10.07;;;3.58;;
64293;SDS011;50636;45.596;5.258;2023-04-27T06:42:35;12.98;;;3.90;;
64293;SDS011;50636;45.596;5.258;2023-04-27T06:45:02;11.20;;;4.20;;
64293;SDS011;50636;45.596;5.258;2023-04-27T06:47:29;10.45;;;4.82;;
64293;SDS011;50636;45.596;5.258;2023-04-27T06:49:54;14.93;;;4.15;;
64293;SDS011;50636;45.596;5.258;2023-04-27T06:52:20;15.75;;;3.95;;
64293;SDS011;50636;45.596;5.258;2023-04-27T06:54:46;8.15;;;3.38;;
64293;SDS011;50636;45.596;5.258;2023-04-27T06:57:12;13.20;;;3.78;;
64293;SDS011;50636;45.596;5.258;2023-04-27T06:59:38;12.95;;;3.92;;
64293;SDS011;50636;45.596;5.258;2023-04-27T07:02:04;15.30;;;4.63;;
64293;SDS011;50636;45.596;5.258;2023-04-27T07:04:31;16.80;;;4.25;;
64293;SDS011;50636;45.596;5.258;2023-04-27T07:06:57;11.48;;;4.13;;
64293;SDS011;50636;45.596;5.258;2023-04-27T07:09:23;20.85;;;4.43;;
64293;SDS011;50636;45.596;5.258;2023-04-27T07:11:49;20.95;;;5.00;;
64293;SDS011;50636;45.596;5.258;2023-04-27T07:14:15;8.65;;;3.63;;
64293;SDS011;50636;45.596;5.258;2023-04-27T07:16:41;116.75;;;8.55;;
64293;SDS011;50636;45.596;5.258;2023-04-27T07:19:08;100.25;;;8.02;;
64293;SDS011;50636;45.596;5.258;2023-04-27T07:21:34;67.70;;;6.95;;
64293;SDS011;50636;45.596;5.258;2023-04-27T07:24:00;40.50;;;5.40;;
64293;SDS011;50636;45.596;5.258;2023-04-27T07:26:28;33.50;;;5.18;;
64293;SDS011;50636;45.596;5.258;2023-04-27T07:28:56;54.53;;;5.43;;
64293;SDS011;50636;45.596;5.258;2023-04-27T07:31:22;26.98;;;4.40;;
64293;SDS011;50636;45.596;5.258;2023-04-27T07:33:48;86.80;;;8.25;;
64293;SDS011;50636;45.596;5.258;2023-04-27T07:36:13;44.42;;;5.10;;
64293;SDS011;50636;45.596;5.258;2023-04-27T07:38:40;62.42;;;7.25;;
64293;SDS011;50636;45.596;5.258;2023-04-27T07:41:07;28.65;;;6.85;;
64293;SDS011;50636;45.596;5.258;2023-04-27T07:43:34;56.80;;;7.18;;
64293;SDS011;50636;45.596;5.258;2023-04-27T07:46:00;37.20;;;6.63;;
64293;SDS011;50636;45.596;5.258;2023-04-27T07:48:26;13.57;;;4.47;;
64293;SDS011;50636;45.596;5.258;2023-04-27T07:50:52;28.70;;;5.60;;
64293;SDS011;50636;45.596;5.258;2023-04-27T07:53:19;23.58;;;5.97;;
64293;SDS011;50636;45.596;5.258;2023-04-27T07:55:45;28.55;;;5.57;;
64293;SDS011;50636;45.596;5.258;2023-04-27T07:58:11;33.05;;;5.40;;
64293;SDS011;50636;45.596;5.258;2023-04-27T08:00:37;39.65;;;5.90;;
64293;SDS011;50636;45.596;5.258;2023-04-27T08:03:03;33.13;;;4.65;;
64293;SDS011;50636;45.596;5.258;2023-04-27T08:05:29;21.88;;;4.28;;
64293;SDS011;50636;45.596;5.258;2023-04-27T08:07:55;24.75;;;4.50;;
64293;SDS011;50636;45.596;5.258;2023-04-27T08:10:21;37.50;;;4.85;;
64293;SDS011;50636;45.596;5.258;2023-04-27T08:12:47;21.65;;;4.60;;
64293;SDS011;50636;45.596;5.258;2023-04-27T08:15:13;10.93;;;3.80;;
64293;SDS011;50636;45.596;5.258;2023-04-27T08:17:39;15.80;;;3.42;;
64293;SDS011;50636;45.596;5.258;2023-04-27T08:20:06;38.03;;;5.30;;
64293;SDS011;50636;45.596;5.258;2023-04-27T08:22:39;40.47;;;5.40;;
64293;SDS011;50636;45.596;5.258;2023-04-27T08:25:06;24.83;;;3.58;;
64293;SDS011;50636;45.596;5.258;2023-04-27T08:27:32;24.55;;;4.20;;
64293;SDS011;50636;45.596;5.258;2023-04-27T08:30:01;39.42;;;5.55;;
64293;SDS011;50636;45.596;5.258;2023-04-27T08:32:27;17.23;;;3.45;;
64293;SDS011;50636;45.596;5.258;2023-04-27T08:34:53;22.08;;;3.90;;
64293;SDS011;50636;45.596;5.258;2023-04-27T08:37:19;12.55;;;3.80;;
64293;SDS011;50636;45.596;5.258;2023-04-27T08:39:45;16.02;;;3.72;;
64293;SDS011;50636;45.596;5.258;2023-04-27T08:42:12;12.88;;;2.83;;
64293;SDS011;50636;45.596;5.258;2023-04-27T08:44:41;20.85;;;2.85;;
64293;SDS011;50636;45.596;5.258;2023-04-27T08:47:08;18.17;;;2.72;;
64293;SDS011;50636;45.596;5.258;2023-04-27T08:49:35;8.02;;;2.40;;
64293;SDS011;50636;45.596;5.258;2023-04-27T08:52:09;10.05;;;2.58;;
64293;SDS011;50636;45.596;5.258;2023-04-27T08:54:39;8.23;;;2.28;;
64293;SDS011;50636;45.596;5.258;2023-04-27T08:57:08;10.38;;;2.58;;
64293;SDS011;50636;45.596;5.258;2023-04-27T08:59:38;10.95;;;2.47;;
64293;SDS011;50636;45.596;5.258;2023-04-27T09:02:05;20.42;;;2.45;;
64293;SDS011;50636;45.596;5.258;2023-04-27T09:04:38;21.92;;;2.50;;
64293;SDS011;50636;45.596;5.258;2023-04-27T09:07:14;117.47;;;7.20;;
64293;SDS011;50636;45.596;5.258;2023-04-27T09:09:41;74.55;;;5.28;;
64293;SDS011;50636;45.596;5.258;2023-04-27T09:12:18;81.18;;;6.45;;
64293;SDS011;50636;45.596;5.258;2023-04-27T09:15:02;19.63;;;2.08;;
64293;SDS011;50636;45.596;5.258;2023-04-27T09:20:04;55.05;;;7.57;;
64293;SDS011;50636;45.596;5.258;2023-04-27T09:22:43;38.60;;;4.55;;
64293;SDS011;50636;45.596;5.258;2023-04-27T09:25:30;41.88;;;7.75;;
64293;SDS011;50636;45.596;5.258;2023-04-27T09:27:58;12.77;;;2.30;;
64293;SDS011;50636;45.596;5.258;2023-04-27T09:30:25;35.97;;;4.13;;
64293;SDS011;50636;45.596;5.258;2023-04-27T09:32:53;35.28;;;3.00;;
64293;SDS011;50636;45.596;5.258;2023-04-27T09:35:25;27.10;;;3.08;;
64293;SDS011;50636;45.596;5.258;2023-04-27T09:37:52;111.22;;;9.38;;
64293;SDS011;50636;45.596;5.258;2023-04-27T09:40:19;36.65;;;4.53;;
64293;SDS011;50636;45.596;5.258;2023-04-27T09:42:53;35.90;;;3.67;;
64293;SDS011;50636;45.596;5.258;2023-04-27T09:45:28;28.23;;;3.35;;
64293;SDS011;50636;45.596;5.258;2023-04-27T09:47:54;28.30;;;2.83;;
64293;SDS011;50636;45.596;5.258;2023-04-27T09:50:20;11.65;;;2.17;;
64293;SDS011;50636;45.596;5.258;2023-04-27T09:52:46;17.23;;;2.42;;
64293;SDS011;50636;45.596;5.258;2023-04-27T09:55:33;17.55;;;2.25;;
64293;SDS011;50636;45.596;5.258;2023-04-27T10:00:55;4.95;;;1.83;;
64293;SDS011;50636;45.596;5.258;2023-04-27T10:03:35;7.65;;;2.03;;
64293;SDS011;50636;45.596;5.258;2023-04-27T10:08:59;5.50;;;1.52;;
64293;SDS011;50636;45.596;5.258;2023-04-27T10:11:37;6.57;;;1.75;;
64293;SDS011;50636;45.596;5.258;2023-04-27T10:14:05;6.80;;;2.17;;
64293;SDS011;50636;45.596;5.258;2023-04-27T10:16:43;3.40;;;1.50;;
64293;SDS011;50636;45.596;5.258;2023-04-27T10:19:16;4.70;;;1.60;;
64293;SDS011;50636;45.596;5.258;2023-04-27T10:21:56;6.78;;;1.67;;
64293;SDS011;50636;45.596;5.258;2023-04-27T10:24:35;10.90;;;2.15;;
64293;SDS011;50636;45.596;5.258;2023-04-27T10:27:02;7.82;;;2.00;;
64293;SDS011;50636;45.596;5.258;2023-04-27T10:32:17;4.90;;;1.60;;
64293;SDS011;50636;45.596;5.258;2023-04-27T10:34:47;5.28;;;1.55;;
64293;SDS011;50636;45.596;5.258;2023-04-27T10:37:14;2.28;;;1.20;;
64293;SDS011;50636;45.596;5.258;2023-04-27T10:39:41;5.53;;;1.52;;
64293;SDS011;50636;45.596;5.258;2023-04-27T10:42:08;3.60;;;1.20;;
64293;SDS011;50636;45.596;5.258;2023-04-27T10:44:35;15.00;;;1.88;;
64293;SDS011;50636;45.596;5.258;2023-04-27T10:47:10;8.45;;;1.50;;
64293;SDS011;50636;45.596;5.258;2023-04-27T10:49:38;8.35;;;1.40;;
64293;SDS011;50636;45.596;5.258;2023-04-27T10:52:04;5.97;;;1.55;;
64293;SDS011;50636;45.596;5.258;2023-04-27T10:54:31;4.10;;;1.30;;
64293;SDS011;50636;45.596;5.258;2023-04-27T10:57:07;3.92;;;1.35;;
64293;SDS011;50636;45.596;5.258;2023-04-27T10:59:35;5.75;;;1.38;;
64293;SDS011;50636;45.596;5.258;2023-04-27T11:02:26;3.13;;;1.10;;
64293;SDS011;50636;45.596;5.258;2023-04-27T11:04:53;3.75;;;1.00;;
64293;SDS011;50636;45.596;5.258;2023-04-27T11:07:24;5.40;;;1.13;;
64293;SDS011;50636;45.596;5.258;2023-04-27T11:09:51;8.50;;;1.58;;
64293;SDS011;50636;45.596;5.258;2023-04-27T11:12:18;9.52;;;1.50;;
64293;SDS011;50636;45.596;5.258;2023-04-27T11:14:43;8.13;;;1.48;;
64293;SDS011;50636;45.596;5.258;2023-04-27T11:17:10;10.13;;;1.60;;
64293;SDS011;50636;45.596;5.258;2023-04-27T11:19:43;7.80;;;1.02;;
64293;SDS011;50636;45.596;5.258;2023-04-27T11:24:50;4.07;;;1.15;;
64293;SDS011;50636;45.596;5.258;2023-04-27T11:27:17;3.88;;;1.23;;
64293;SDS011;50636;45.596;5.258;2023-04-27T11:29:46;11.43;;;2.05;;
64293;SDS011;50636;45.596;5.258;2023-04-27T11:32:18;11.30;;;2.05;;
64293;SDS011;50636;45.596;5.258;2023-04-27T11:34:51;26.88;;;1.77;;
64293;SDS011;50636;45.596;5.258;2023-04-27T11:37:21;52.47;;;4.37;;
64293;SDS011;50636;45.596;5.258;2023-04-27T11:39:49;4.35;;;1.38;;
64293;SDS011;50636;45.596;5.258;2023-04-27T11:42:20;12.68;;;1.90;;
64293;SDS011;50636;45.596;5.258;2023-04-27T11:44:54;23.27;;;2.70;;
64293;SDS011;50636;45.596;5.258;2023-04-27T11:47:24;5.23;;;1.30;;
64293;SDS011;50636;45.596;5.258;2023-04-27T11:49:55;16.95;;;1.92;;
64293;SDS011;50636;45.596;5.258;2023-04-27T11:52:32;11.25;;;1.40;;
64293;SDS011;50636;45.596;5.258;2023-04-27T11:55:00;36.53;;;2.80;;
64293;SDS011;50636;45.596;5.258;2023-04-27T11:57:31;12.93;;;1.98;;
64293;SDS011;50636;45.596;5.258;2023-04-27T11:59:58;23.08;;;2.78;;
64293;SDS011;50636;45.596;5.258;2023-04-27T12:02:27;38.20;;;3.08;;
64293;SDS011;50636;45.596;5.258;2023-04-27T12:04:54;44.00;;;3.35;;
64293;SDS011;50636;45.596;5.258;2023-04-27T12:07:20;109.03;;;7.53;;
64293;SDS011;50636;45.596;5.258;2023-04-27T12:09:46;27.27;;;3.10;;
64293;SDS011;50636;45.596;5.258;2023-04-27T12:12:12;4.28;;;1.23;;
64293;SDS011;50636;45.596;5.258;2023-04-27T12:14:38;22.88;;;2.53;;
64293;SDS011;50636;45.596;5.258;2023-04-27T12:17:05;14.43;;;2.53;;
64293;SDS011;50636;45.596;5.258;2023-04-27T12:19:31;8.82;;;1.48;;
64293;SDS011;50636;45.596;5.258;2023-04-27T12:21:57;64.90;;;4.57;;
64293;SDS011;50636;45.596;5.258;2023-04-27T12:24:23;17.65;;;2.28;;
64293;SDS011;50636;45.596;5.258;2023-04-27T12:26:49;18.60;;;1.85;;
64293;SDS011;50636;45.596;5.258;2023-04-27T12:29:18;14.48;;;1.60;;
64293;SDS011;50636;45.596;5.258;2023-04-27T12:31:44;6.78;;;1.25;;
64293;SDS011;50636;45.596;5.258;2023-04-27T12:34:10;24.88;;;2.90;;
64293;SDS011;50636;45.596;5.258;2023-04-27T12:36:36;40.65;;;3.05;;
64293;SDS011;50636;45.596;5.258;2023-04-27T12:39:18;10.05;;;1.55;;
64293;SDS011;50636;45.596;5.258;2023-04-27T12:41:45;10.63;;;1.23;;
64293;SDS011;50636;45.596;5.258;2023-04-27T12:44:12;6.00;;;1.63;;
64293;SDS011;50636;45.596;5.258;2023-04-27T12:46:39;6.47;;;1.00;;
64293;SDS011;50636;45.596;5.258;2023-04-27T12:49:06;4.20;;;1.15;;
64293;SDS011;50636;45.596;5.258;2023-04-27T12:51:33;7.80;;;1.27;;
64293;SDS011;50636;45.596;5.258;2023-04-27T12:53:59;4.78;;;1.00;;
64293;SDS011;50636;45.596;5.258;2023-04-27T12:56:28;9.88;;;1.83;;
64293;SDS011;50636;45.596;5.258;2023-04-27T12:58:54;4.38;;;1.00;;
64293;SDS011;50636;45.596;5.258;2023-04-27T13:01:20;5.43;;;1.17;;
64293;SDS011;50636;45.596;5.258;2023-04-27T13:03:52;5.65;;;1.52;;
64293;SDS011;50636;45.596;5.258;2023-04-27T13:06:19;3.05;;;1.00;;
64293;SDS011;50636;45.596;5.258;2023-04-27T13:08:47;3.75;;;0.85;;
64293;SDS011;50636;45.596;5.258;2023-04-27T13:11:14;6.78;;;1.52;;
64293;SDS011;50636;45.596;5.258;2023-04-27T13:13:40;7.95;;;1.92;;
64293;SDS011;50636;45.596;5.258;2023-04-27T13:16:06;4.10;;;1.05;;
64293;SDS011;50636;45.596;5.258;2023-04-27T13:18:32;10.55;;;1.30;;
64293;SDS011;50636;45.596;5.258;2023-04-27T13:20:59;10.88;;;1.90;;
64293;SDS011;50636;45.596;5.258;2023-04-27T13:23:25;10.55;;;2.15;;
64293;SDS011;50636;45.596;5.258;2023-04-27T13:25:51;15.35;;;2.15;;
64293;SDS011;50636;45.596;5.258;2023-04-27T13:28:17;10.15;;;1.95;;
64293;SDS011;50636;45.596;5.258;2023-04-27T13:30:44;5.43;;;1.42;;
64293;SDS011;50636;45.596;5.258;2023-04-27T13:33:10;12.52;;;2.03;;
64293;SDS011;50636;45.596;5.258;2023-04-27T13:35:40;8.45;;;1.70;;
64293;SDS011;50636;45.596;5.258;2023-04-27T13:38:06;6.30;;;1.17;;
64293;SDS011;50636;45.596;5.258;2023-04-27T13:40:32;2.70;;;1.10;;
64293;SDS011;50636;45.596;5.258;2023-04-27T13:42:58;3.58;;;0.98;;
64293;SDS011;50636;45.596;5.258;2023-04-27T13:45:24;8.48;;;1.55;;
64293;SDS011;50636;45.596;5.258;2023-04-27T13:47:51;5.90;;;1.15;;
64293;SDS011;50636;45.596;5.258;2023-04-27T13:50:16;2.50;;;0.90;;
64293;SDS011;50636;45.596;5.258;2023-04-27T13:52:42;3.05;;;1.20;;
64293;SDS011;50636;45.596;5.258;2023-04-27T13:55:09;5.32;;;1.20;;
64293;SDS011;50636;45.596;5.258;2023-04-27T13:57:36;8.70;;;1.52;;
64293;SDS011;50636;45.596;5.258;2023-04-27T14:00:02;9.30;;;2.13;;
64293;SDS011;50636;45.596;5.258;2023-04-27T14:02:32;4.65;;;0.82;;
64293;SDS011;50636;45.596;5.258;2023-04-27T14:04:58;22.02;;;2.28;;
64293;SDS011;50636;45.596;5.258;2023-04-27T14:07:23;7.05;;;1.42;;
64293;SDS011;50636;45.596;5.258;2023-04-27T14:09:49;14.60;;;2.13;;
64293;SDS011;50636;45.596;5.258;2023-04-27T14:12:15;4.72;;;0.88;;
64293;SDS011;50636;45.596;5.258;2023-04-27T14:14:42;11.82;;;2.38;;
64293;SDS011;50636;45.596;5.258;2023-04-27T14:17:07;14.18;;;1.35;;
64293;SDS011;50636;45.596;5.258;2023-04-27T14:19:33;11.15;;;1.50;;
64293;SDS011;50636;45.596;5.258;2023-04-27T14:21:59;5.95;;;1.10;;
64293;SDS011;50636;45.596;5.258;2023-04-27T14:24:27;9.85;;;1.67;;
64293;SDS011;50636;45.596;5.258;2023-04-27T14:26:54;9.13;;;1.60;;
64293;SDS011;50636;45.596;5.258;2023-04-27T14:29:19;9.07;;;1.20;;
64293;SDS011;50636;45.596;5.258;2023-04-27T14:31:46;6.97;;;0.98;;
64293;SDS011;50636;45.596;5.258;2023-04-27T14:34:12;3.40;;;1.20;;
64293;SDS011;50636;45.596;5.258;2023-04-27T14:36:41;3.97;;;1.00;;
64293;SDS011;50636;45.596;5.258;2023-04-27T14:39:07;11.52;;;1.83;;
64293;SDS011;50636;45.596;5.258;2023-04-27T14:41:34;5.78;;;1.00;;
64293;SDS011;50636;45.596;5.258;2023-04-27T14:44:04;13.52;;;1.48;;
64293;SDS011;50636;45.596;5.258;2023-04-27T14:46:34;3.30;;;0.82;;
64293;SDS011;50636;45.596;5.258;2023-04-27T14:49:01;3.42;;;0.98;;
64293;SDS011;50636;45.596;5.258;2023-04-27T14:51:26;16.75;;;1.60;;